createdAt,value
2019-05-02T00:02:04.748Z,37.40
2019-05-02T00:05:09.817Z,35.60
2019-05-02T00:08:13.243Z,37.37
2019-05-02T00:11:17.044Z,36.43
2019-05-02T00:14:20.493Z,34.90
2019-05-02T00:17:25.662Z,37.13
2019-05-02T00:20:29.199Z,37.87
2019-05-02T00:23:32.697Z,43.30
2019-05-02T00:26:36.225Z,35.90
2019-05-02T00:29:39.684Z,37.03
2019-05-02T00:32:43.144Z,36.07
2019-05-02T00:35:47.627Z,34.93
2019-05-02T00:38:51.316Z,35.93
2019-05-02T00:41:54.756Z,35.80
2019-05-02T00:44:58.217Z,35.40
2019-05-02T00:48:05.968Z,36.57
2019-05-02T00:51:09.428Z,34.70
2019-05-02T00:54:12.888Z,36.87
2019-05-02T00:57:19.881Z,37.73
2019-05-02T01:00:21.585Z,37.07
2019-05-02T01:03:26.645Z,36.10
2019-05-02T01:06:30.108Z,38.77
2019-05-02T01:09:33.917Z,38.23
2019-05-02T01:12:39.959Z,39.20
2019-05-02T01:15:44.113Z,40.33
2019-05-02T01:18:47.856Z,38.77
2019-05-02T01:21:51.321Z,40.53
2019-05-02T01:24:54.765Z,41.10
2019-05-02T01:28:17.573Z,40.10
2019-05-02T01:31:23.126Z,41.70
2019-05-02T01:34:48.932Z,41.67
2019-05-02T01:38:09.392Z,39.47
2019-05-02T01:41:12.935Z,39.77
2019-05-02T01:44:16.369Z,39.07
2019-05-02T01:47:19.816Z,39.33
2019-05-02T01:50:23.277Z,38.47
2019-05-02T01:53:29.362Z,39.27
2019-05-02T01:56:33.165Z,38.97
2019-05-02T01:59:37.134Z,40.00
2019-05-02T02:02:40.569Z,39.90
2019-05-02T02:05:44.111Z,37.10
2019-05-02T02:08:47.823Z,38.33
2019-05-02T02:11:51.257Z,38.90
2019-05-02T02:14:55.582Z,37.67
2019-05-02T02:17:59.208Z,37.03
2019-05-02T02:21:20.188Z,39.20
2019-05-02T02:24:25.123Z,38.30
2019-05-02T02:27:28.308Z,37.30
2019-05-02T02:30:31.746Z,40.03
2019-05-02T02:33:40.784Z,38.17
2019-05-02T02:36:40.381Z,38.40
2019-05-02T02:39:48.357Z,38.07
2019-05-02T02:42:49.169Z,40.10
2019-05-02T02:46:03.494Z,38.20
2019-05-02T02:49:06.924Z,39.80
2019-05-02T02:52:10.394Z,37.97
2019-05-02T02:55:16.113Z,38.27
2019-05-02T02:58:19.082Z,38.13
2019-05-02T03:01:28.687Z,37.10
2019-05-02T03:04:27.762Z,36.33
2019-05-02T03:07:31.233Z,38.93
2019-05-02T03:10:39.979Z,37.90
2019-05-02T03:13:52.446Z,39.00
2019-05-02T03:16:49.803Z,36.80
2019-05-02T03:19:54.227Z,37.80
2019-05-02T03:22:58.487Z,35.53
2019-05-02T03:26:07.911Z,37.93
2019-05-02T03:29:07.110Z,36.97
2019-05-02T03:32:16.670Z,38.10
2019-05-02T03:35:18.902Z,37.17
2019-05-02T03:38:31.081Z,37.70
2019-05-02T03:41:26.817Z,35.97
2019-05-02T03:44:30.453Z,36.30
2019-05-02T03:47:37.110Z,36.30
2019-05-02T03:50:39.132Z,37.50
2019-05-02T03:53:42.565Z,36.10
2019-05-02T03:56:51.267Z,36.73
2019-05-02T03:59:52.595Z,39.83
2019-05-02T04:03:00.475Z,38.77
2019-05-02T04:06:01.357Z,38.73
2019-05-02T04:09:07.174Z,37.23
2019-05-02T04:12:18.623Z,38.30
2019-05-02T04:15:15.882Z,40.63
2019-05-02T04:18:21.054Z,38.07
2019-05-02T04:21:26.307Z,41.53
2019-05-02T04:24:30.310Z,39.07
2019-05-02T04:27:35.900Z,38.60
2019-05-02T04:30:39.184Z,38.70
2019-05-02T04:33:42.766Z,37.87
2019-05-02T04:36:47.111Z,37.60
2019-05-02T04:39:53.660Z,38.63
2019-05-02T04:43:01.932Z,37.90
2019-05-02T04:46:01.781Z,36.37
2019-05-02T04:49:05.262Z,38.27
2019-05-02T04:52:12.207Z,38.17
2019-05-02T04:55:22.963Z,37.13
2019-05-02T04:58:27.721Z,38.77
2019-05-02T05:01:33.206Z,38.73
2019-05-02T05:04:33.124Z,37.67
2019-05-02T05:07:43.638Z,37.17
2019-05-02T05:10:45.050Z,38.53
2019-05-02T05:13:47.923Z,37.70
2019-05-02T05:16:55.520Z,38.03
2019-05-02T05:19:57.364Z,37.87
2019-05-02T05:23:02.005Z,37.37
2019-05-02T05:26:07.329Z,35.63
2019-05-02T05:29:13.982Z,37.47
2019-05-02T05:32:17.821Z,36.17
2019-05-02T05:35:20.988Z,36.03
2019-05-02T05:38:28.705Z,35.43
2019-05-02T05:41:29.615Z,35.00
2019-05-02T05:44:33.048Z,33.93
2019-05-02T05:47:37.817Z,35.47
2019-05-02T05:50:41.617Z,35.80
2019-05-02T05:53:45.183Z,31.80
2019-05-02T05:56:48.622Z,32.83
2019-05-02T05:59:52.089Z,31.80
2019-05-02T06:03:01.216Z,30.87
2019-05-02T06:06:00.711Z,32.23
2019-05-02T06:09:07.029Z,31.83
2019-05-02T06:12:10.492Z,30.97
2019-05-02T06:15:14.172Z,30.37
2019-05-02T06:18:17.638Z,30.60
2019-05-02T06:21:21.068Z,28.83
2019-05-02T06:24:24.537Z,27.47
2019-05-02T06:27:30.507Z,27.53
2019-05-02T06:30:33.188Z,26.27
2019-05-02T06:33:36.690Z,25.97
2019-05-02T06:36:40.140Z,27.17
2019-05-02T06:39:43.600Z,26.37
2019-05-02T06:42:47.128Z,26.97
2019-05-02T06:45:50.593Z,25.80
2019-05-02T06:48:54.034Z,27.73
2019-05-02T06:51:57.695Z,25.63
2019-05-02T06:55:01.311Z,26.10
2019-05-02T06:58:08.047Z,26.43
2019-05-02T07:01:09.997Z,25.83
2019-05-02T07:04:17.340Z,25.70
2019-05-02T07:07:18.734Z,24.40
2019-05-02T07:10:25.454Z,24.30
2019-05-02T07:13:27.356Z,24.77
2019-05-02T07:16:38.449Z,25.60
2019-05-02T07:19:39.432Z,25.03
2019-05-02T07:22:45.633Z,24.17
2019-05-02T07:25:48.469Z,26.13
2019-05-02T07:28:51.906Z,25.17
2019-05-02T07:31:55.386Z,25.43
2019-05-02T07:34:58.880Z,24.63
2019-05-02T07:38:11.524Z,24.83
2019-05-02T07:41:14.969Z,25.50
2019-05-02T07:44:20.388Z,25.73
2019-05-02T07:47:23.920Z,25.80
2019-05-02T07:50:27.395Z,24.87
2019-05-02T07:53:30.838Z,24.50
2019-05-02T07:56:34.322Z,24.57
2019-05-02T07:59:37.753Z,24.87
2019-05-02T08:02:41.228Z,24.53
2019-05-02T08:05:44.930Z,24.50
2019-05-02T08:08:48.428Z,26.07
2019-05-02T08:11:51.938Z,24.17
2019-05-02T08:14:55.404Z,24.43
2019-05-02T08:17:58.881Z,23.63
2019-05-02T08:21:02.348Z,23.37
2019-05-02T08:24:05.791Z,23.33
2019-05-02T08:27:10.902Z,23.77
2019-05-02T08:30:19.049Z,23.60
2019-05-02T08:33:22.520Z,24.70
2019-05-02T08:36:25.960Z,24.60
2019-05-02T08:39:33.342Z,25.47
2019-05-02T08:42:34.601Z,24.17
2019-05-02T08:45:39.427Z,22.80
2019-05-02T08:48:43.778Z,24.50
2019-05-02T08:51:47.553Z,22.67
2019-05-02T08:54:50.997Z,21.03
2019-05-02T08:57:54.469Z,22.77
2019-05-02T09:00:57.903Z,20.83
2019-05-02T09:04:01.385Z,22.53
2019-05-02T09:07:05.217Z,21.80
2019-05-02T09:10:09.861Z,21.13
2019-05-02T09:13:15.864Z,20.60
2019-05-02T09:16:23.711Z,20.70
2019-05-02T09:19:26.574Z,20.23
2019-05-02T09:22:30.242Z,21.53
2019-05-02T09:25:33.684Z,21.30
2019-05-02T09:28:37.169Z,21.73
2019-05-02T09:31:42.160Z,20.93
2019-05-02T09:34:45.799Z,20.77
2019-05-02T09:37:49.242Z,20.73
2019-05-02T09:40:56.220Z,19.77
2019-05-02T09:43:57.876Z,20.43
2019-05-02T09:47:02.342Z,20.03
2019-05-02T09:50:14.680Z,19.53
2019-05-02T09:53:20.510Z,18.83
2019-05-02T09:56:23.328Z,20.07
2019-05-02T09:59:33.268Z,20.43
2019-05-02T10:02:36.856Z,20.63
2019-05-02T10:05:40.326Z,19.90
2019-05-02T10:08:46.578Z,20.67
2019-05-02T10:11:49.024Z,20.23
2019-05-02T10:14:52.772Z,20.07
2019-05-02T10:18:07.819Z,20.53
2019-05-02T10:21:03.059Z,19.27
2019-05-02T10:24:06.744Z,20.30
2019-05-02T10:27:10.272Z,21.33
2019-05-02T10:30:15.793Z,22.30
2019-05-02T10:33:19.428Z,21.23
2019-05-02T10:36:24.010Z,21.67
2019-05-02T10:39:28.356Z,22.60
2019-05-02T10:42:32.797Z,21.97
2019-05-02T10:45:37.117Z,23.73
2019-05-02T10:48:42.221Z,22.97
2019-05-02T10:51:49.407Z,23.60
2019-05-02T10:54:52.881Z,24.53
2019-05-02T10:57:56.010Z,22.83
2019-05-02T11:00:59.472Z,22.50
2019-05-02T11:04:07.284Z,22.00
2019-05-02T11:07:17.056Z,21.57
2019-05-02T11:10:17.992Z,21.83
2019-05-02T11:13:23.088Z,22.23
2019-05-02T11:16:28.198Z,21.97
2019-05-02T11:19:42.352Z,22.60
2019-05-02T11:22:45.817Z,22.87
2019-05-02T11:25:49.280Z,21.50
2019-05-02T11:28:52.753Z,21.13
2019-05-02T11:31:56.192Z,23.83
2019-05-02T11:34:59.657Z,22.00
2019-05-02T11:38:03.186Z,23.53
2019-05-02T11:41:06.796Z,22.70
2019-05-02T11:44:12.094Z,22.70
2019-05-02T11:47:17.281Z,23.73
2019-05-02T11:50:22.109Z,22.30
2019-05-02T11:53:29.325Z,22.73
2019-05-02T11:56:32.800Z,23.23
2019-05-02T11:59:36.007Z,22.37
2019-05-02T12:02:41.725Z,22.03
2019-05-02T12:05:45.249Z,22.70
2019-05-02T12:08:49.490Z,23.30
2019-05-02T12:11:56.617Z,21.80
2019-05-02T12:14:58.308Z,21.33
2019-05-02T12:18:02.534Z,22.47
2019-05-02T12:21:06.106Z,23.07
2019-05-02T12:24:09.561Z,23.20
2019-05-02T12:27:13.085Z,23.03
2019-05-02T12:30:16.612Z,23.90
2019-05-02T12:33:22.301Z,23.30
2019-05-02T12:36:25.833Z,24.87
2019-05-02T12:39:29.287Z,24.93
2019-05-02T12:42:33.437Z,24.00
2019-05-02T12:45:37.292Z,25.00
2019-05-02T12:48:42.242Z,24.13
2019-05-02T12:51:45.884Z,23.57
2019-05-02T12:54:49.325Z,25.07
2019-05-02T12:57:52.785Z,24.87
2019-05-02T13:00:56.221Z,25.33
2019-05-02T13:04:04.024Z,25.63
2019-05-02T13:07:07.471Z,26.03
2019-05-02T13:10:13.600Z,24.63
2019-05-02T13:13:17.108Z,24.33
2019-05-02T13:16:22.555Z,25.53
2019-05-02T13:19:37.248Z,24.83
2019-05-02T13:22:42.014Z,25.00
2019-05-02T13:25:45.663Z,24.03
2019-05-02T13:28:49.131Z,26.00
2019-05-02T13:31:54.233Z,26.17
2019-05-02T13:35:15.972Z,26.00
2019-05-02T13:38:22.397Z,25.73
2019-05-02T13:41:25.928Z,25.57
2019-05-02T13:44:41.573Z,25.50
2019-05-02T13:47:45.016Z,27.33
2019-05-02T13:50:48.481Z,25.03
2019-05-02T13:53:56.665Z,26.17
2019-05-02T13:57:00.096Z,25.10
2019-05-02T14:00:05.536Z,25.80
2019-05-02T14:03:09.268Z,24.07
2019-05-02T14:06:12.716Z,23.27
2019-05-02T14:09:32.215Z,24.13
2019-05-02T14:12:45.822Z,24.60
2019-05-02T14:15:49.344Z,23.73
2019-05-02T14:18:53.062Z,24.23
2019-05-02T14:21:56.625Z,24.03
2019-05-02T14:25:01.883Z,24.73
2019-05-02T14:28:05.329Z,24.03
2019-05-02T14:31:08.786Z,25.73
2019-05-02T14:34:30.109Z,25.70
2019-05-02T14:37:33.577Z,27.63
2019-05-02T14:40:40.193Z,26.10
2019-05-02T14:43:53.286Z,27.10
2019-05-02T14:46:55.716Z,26.57
2019-05-02T14:50:02.242Z,27.03
2019-05-02T14:53:04.348Z,26.47
2019-05-02T14:56:09.516Z,25.00
2019-05-02T14:59:15.320Z,25.23
2019-05-02T15:02:19.841Z,25.03
2019-05-02T15:05:27.975Z,25.57
2019-05-02T15:08:28.484Z,24.67
2019-05-02T15:11:34.843Z,23.63
2019-05-02T15:14:37.198Z,24.17
2019-05-02T15:17:42.030Z,24.53
2019-05-02T15:20:45.768Z,23.90
2019-05-02T15:23:54.314Z,22.43
2019-05-02T15:26:54.481Z,23.83
2019-05-02T15:30:01.966Z,21.07
2019-05-02T15:33:12.547Z,19.97
2019-05-02T15:36:16.294Z,20.93
2019-05-02T15:42:25.854Z,16.23
2019-05-02T15:45:32.047Z,14.53
2019-05-02T15:48:35.842Z,14.50
2019-05-02T15:51:43.731Z,14.77
2019-05-02T15:54:44.824Z,13.73
2019-05-02T15:57:49.447Z,14.30
2019-05-02T16:01:12.776Z,14.83
2019-05-02T16:04:24.155Z,14.67
2019-05-02T16:07:23.064Z,15.03
2019-05-02T16:10:26.529Z,13.83
2019-05-02T16:13:31.746Z,13.50
2019-05-02T16:16:36.575Z,13.53
2019-05-02T16:19:42.596Z,13.83
2019-05-02T16:22:49.645Z,12.47
2019-05-02T16:25:52.401Z,12.93
2019-05-02T16:28:56.016Z,13.33
2019-05-02T16:32:05.537Z,14.57
2019-05-02T16:35:15.399Z,14.23
2019-05-02T16:38:14.778Z,14.20
2019-05-02T16:41:18.225Z,13.40
2019-05-02T16:44:22.349Z,13.73
2019-05-02T16:47:25.931Z,12.77
2019-05-02T16:50:33.006Z,12.20
2019-05-02T16:53:34.557Z,13.53
2019-05-02T16:56:44.426Z,12.80
2019-05-02T16:59:43.196Z,12.90
2019-05-02T17:02:46.667Z,12.47
2019-05-02T17:05:50.106Z,12.33
2019-05-02T17:08:58.744Z,12.00
2019-05-02T17:12:06.513Z,12.30
2019-05-02T17:15:34.975Z,11.97
2019-05-02T17:18:35.646Z,12.60
2019-05-02T17:21:53.215Z,12.97
2019-05-02T17:24:44.285Z,11.80
2019-05-02T17:27:47.749Z,12.33
2019-05-02T17:30:52.429Z,12.77
2019-05-02T17:33:56.188Z,12.37
2019-05-02T17:37:06.218Z,13.43
2019-05-02T17:40:06.118Z,13.97
2019-05-02T17:43:09.565Z,14.07
2019-05-02T17:46:18.310Z,14.43
2019-05-02T17:49:18.225Z,14.43
2019-05-02T17:52:26.700Z,14.50
2019-05-02T17:55:32.777Z,15.90
2019-05-02T17:58:35.368Z,16.20
2019-05-02T18:01:41.791Z,16.17
2019-05-02T18:04:46.720Z,23.73
2019-05-02T18:07:52.538Z,27.27
2019-05-02T18:10:59.959Z,29.30
2019-05-02T18:14:03.299Z,30.43
2019-05-02T18:17:06.272Z,29.47
2019-05-02T18:20:12.325Z,30.43
2019-05-02T18:23:18.694Z,28.83
2019-05-02T18:26:22.214Z,30.33
2019-05-02T18:29:25.873Z,30.50
2019-05-02T18:32:29.345Z,29.53
2019-05-02T18:35:37.449Z,30.03
2019-05-02T18:38:39.119Z,29.60
2019-05-02T18:41:46.223Z,30.57
2019-05-02T18:44:48.307Z,32.07
2019-05-02T18:48:01.008Z,32.17
2019-05-02T18:50:58.512Z,34.03
2019-05-02T18:54:04.545Z,33.23
2019-05-02T18:57:07.385Z,33.57
2019-05-02T19:00:12.214Z,36.03
2019-05-02T19:03:17.321Z,34.97
2019-05-02T19:06:22.049Z,35.53
2019-05-02T19:09:30.124Z,36.07
2019-05-02T19:12:33.908Z,34.57
2019-05-02T19:15:39.521Z,38.50
2019-05-02T19:18:42.756Z,33.00
2019-05-02T19:21:46.234Z,31.23
2019-05-02T19:24:49.672Z,31.73
2019-05-02T19:27:57.582Z,27.53
2019-05-02T19:31:02.949Z,23.97
2019-05-02T19:34:05.337Z,21.03
2019-05-02T19:37:08.772Z,19.03
2019-05-02T19:40:20.100Z,19.03
2019-05-02T19:43:20.545Z,18.17
2019-05-02T19:46:31.565Z,16.93
2019-05-02T19:49:29.208Z,16.13
2019-05-02T19:52:39.239Z,14.67
2019-05-02T19:55:37.933Z,16.33
2019-05-02T19:58:46.330Z,14.53
2019-05-02T20:01:49.300Z,13.40
2019-05-02T20:04:52.776Z,14.13
2019-05-02T20:07:56.227Z,12.37
2019-05-02T20:10:59.721Z,11.70
2019-05-02T20:14:09.213Z,12.27
2019-05-02T20:17:10.374Z,12.70
2019-05-02T20:20:35.951Z,12.00
2019-05-02T20:23:39.567Z,13.63
2019-05-02T20:26:46.662Z,13.77
2019-05-02T20:29:48.278Z,16.07
2019-05-02T20:32:51.829Z,17.27
2019-05-02T20:35:55.272Z,19.17
2019-05-02T20:38:58.727Z,20.20
2019-05-02T20:42:02.670Z,21.70
2019-05-02T20:45:07.377Z,21.30
2019-05-02T20:48:11.897Z,22.13
2019-05-02T20:51:15.464Z,22.37
2019-05-02T20:54:18.937Z,22.60
2019-05-02T20:57:22.388Z,21.50
2019-05-02T21:00:28.757Z,22.37
2019-05-02T21:03:32.192Z,22.77
2019-05-02T21:06:41.153Z,22.60
2019-05-02T21:09:44.253Z,23.00
2019-05-02T21:12:47.794Z,22.43
2019-05-02T21:15:52.420Z,22.17
2019-05-02T21:18:56.065Z,22.00
2019-05-02T21:22:02.619Z,22.30
2019-05-02T21:25:07.932Z,22.77
2019-05-02T21:28:11.959Z,23.97
2019-05-02T21:31:15.508Z,23.43
2019-05-02T21:34:18.955Z,22.67
2019-05-02T21:37:22.709Z,23.67
2019-05-02T21:40:26.247Z,23.17
2019-05-02T21:43:31.552Z,23.73
2019-05-02T21:46:34.889Z,24.33
2019-05-02T21:49:43.069Z,26.83
2019-05-02T21:52:48.301Z,23.43
2019-05-02T21:55:53.406Z,25.20
2019-05-02T21:59:04.149Z,24.70
2019-05-02T22:02:09.323Z,24.93
2019-05-02T22:05:12.763Z,26.47
2019-05-02T22:08:16.228Z,25.13
2019-05-02T22:11:19.662Z,26.67
2019-05-02T22:14:23.129Z,26.30
2019-05-02T22:17:26.605Z,26.40
2019-05-02T22:20:32.002Z,27.47
2019-05-02T22:23:35.289Z,26.67
2019-05-02T22:26:38.761Z,26.03
2019-05-02T22:29:43.058Z,28.00
2019-05-02T22:32:46.757Z,28.57
2019-05-02T22:35:52.289Z,26.97
2019-05-02T22:39:12.633Z,27.67
2019-05-02T22:42:16.847Z,27.47
2019-05-02T22:45:21.787Z,26.13
2019-05-02T22:48:25.382Z,25.43
2019-05-02T22:51:28.844Z,26.67
2019-05-02T22:54:33.834Z,26.70
2019-05-02T22:57:37.624Z,27.00
2019-05-02T23:00:41.639Z,27.30
2019-05-02T23:03:45.345Z,27.80
2019-05-02T23:06:48.786Z,26.90
2019-05-02T23:09:52.833Z,25.67
2019-05-02T23:12:56.412Z,27.33
2019-05-02T23:15:59.884Z,25.07
2019-05-02T23:19:03.469Z,26.07
2019-05-02T23:22:06.936Z,24.73
2019-05-02T23:25:14.250Z,25.80
2019-05-02T23:28:18.925Z,25.73
2019-05-02T23:31:22.678Z,23.77
2019-05-02T23:34:26.204Z,23.83
2019-05-02T23:37:29.637Z,24.23
2019-05-02T23:40:33.155Z,23.57
2019-05-02T23:43:36.633Z,22.97
2019-05-02T23:46:42.201Z,21.30
2019-05-02T23:49:45.244Z,16.43
2019-05-02T23:52:48.684Z,12.30
2019-05-02T23:55:52.149Z,10.67
2019-05-02T23:58:55.581Z,8.57
